Iberville, Canada
Current Conditions -  °F | °C
As of 9:52 AM on Sunday 23 Nov 2014 (Local Time) from CYHU Reporting Station
Haze Haze  
Wind Chill:   Ceiling: 400
Heat Index:   Visibility: 2mi
Dew Point:   Wind: 6mph
Humidity: 93%   Direction: 180°S
Pressure: 30.04"   Gusts: NA
Location:  45.32°N, 73.23°W
Report Text: CYHU 231452Z AUTO 18005KT 2SM BR OVC004 04/03 A3004 RMK SLP174
Loading
Personal Weather Stations






























Interactive Weather Map New forecast layout! Learn more

10-Day Weather Forecast

Advertisements
Track Severe Weather on mobile